Terminal Aerodrome Forecast
Issued by NWS Shreveport, LA

Home | Current Version | Previous Version | Text Only | Print | Product List | Glossary On
Versions: 1 2 3 4 5 6 7 8 9 10 11 12 13 14 15
790
FTUS44 KSHV 141722
TAFSHV
TAF
KSHV 141722Z 1418/1518 16010KT P6SM OVC015
      TEMPO 1418/1421 BKN030 OVC045
     FM142100 17010KT P6SM SCT030 BKN045
      TEMPO 1500/1503 OVC015
     FM150300 16008KT P6SM VCSH OVC008
     FM151000 18010KT P6SM VCTS OVC005CB
      TEMPO 1514/1518 30012G18KT 3SM -TSRA BR OVC015CB=

USA.gov is the U.S. government's official web portal to all federal, state and local government web resources and services.